Time;durP1;ratioP1;P1;durP2;ratioP2;P2;SDS_P1;SDS_P2;PMS_P1;PMS_P2;Temp;Humidity;BMP_temperature;BMP_pressure;BME280_temperature;BME280_humidity;BME280_pressure;Samples;Min_cycle;Max_cycle;Signal;HPM_P1;HPM_P2
2021/08/16 00:02:01;;;;;;;15.75;6.30;;;;;;;;;;5091314;28;20028;-64
2021/08/16 00:04:27;;;;;;;14.95;6.93;;;;;;;;;;5091552;28;20485;-63
2021/08/16 00:06:53;;;;;;;18.17;7.03;;;;;;;;;;5089254;28;20162;-64
2021/08/16 00:09:19;;;;;;;15.70;7.00;;;;;;;;;;5093975;28;20024;-63
2021/08/16 00:11:45;;;;;;;16.85;7.20;;;;;;;;;;5094474;28;20024;-63
2021/08/16 00:14:11;;;;;;;16.58;6.88;;;;;;;;;;5095643;28;20034;-63
2021/08/16 00:16:37;;;;;;;16.15;7.43;;;;;;;;;;5095051;28;20119;-64
2021/08/16 00:19:03;;;;;;;18.13;7.90;;;;;;;;;;5096439;28;20067;-63
2021/08/16 00:21:29;;;;;;;16.13;7.20;;;;;;;;;;5095486;28;20028;-63
2021/08/16 00:23:55;;;;;;;17.08;6.90;;;;;;;;;;5095380;28;20026;-63
2021/08/16 00:26:21;;;;;;;18.80;7.32;;;;;;;;;;5094693;28;20028;-63
2021/08/16 00:28:47;;;;;;;18.58;7.18;;;;;;;;;;5095310;28;20023;-63
2021/08/16 00:31:13;;;;;;;15.05;6.97;;;;;;;;;;5093849;28;20029;-63
2021/08/16 00:33:39;;;;;;;17.35;7.45;;;;;;;;;;5094088;28;20032;-63
2021/08/16 00:36:05;;;;;;;14.23;6.55;;;;;;;;;;5094647;28;20540;-63
2021/08/16 00:38:31;;;;;;;16.48;6.80;;;;;;;;;;5093790;28;20036;-63
2021/08/16 00:40:57;;;;;;;17.58;7.00;;;;;;;;;;5095034;28;20399;-63
2021/08/16 00:43:23;;;;;;;16.17;6.97;;;;;;;;;;5095274;28;20020;-63
2021/08/16 00:45:50;;;;;;;14.90;6.55;;;;;;;;;;5094455;28;20024;-63
2021/08/16 00:48:16;;;;;;;15.43;7.13;;;;;;;;;;5095234;28;20072;-63
2021/08/16 00:50:42;;;;;;;15.85;7.38;;;;;;;;;;5094070;28;20488;-63
2021/08/16 00:53:08;;;;;;;17.15;7.00;;;;;;;;;;5095165;28;20081;-63
2021/08/16 00:55:35;;;;;;;16.58;7.65;;;;;;;;;;5094116;28;20028;-65
2021/08/16 00:58:01;;;;;;;17.83;7.50;;;;;;;;;;5094750;28;20487;-63
2021/08/16 01:00:28;;;;;;;15.90;7.32;;;;;;;;;;5095028;28;20028;-63
2021/08/16 01:02:54;;;;;;;17.50;7.30;;;;;;;;;;5095104;28;20103;-63
2021/08/16 01:05:20;;;;;;;18.75;8.45;;;;;;;;;;5094395;28;20093;-63
2021/08/16 01:07:47;;;;;;;16.33;7.22;;;;;;;;;;5093697;28;20023;-63
2021/08/16 01:10:13;;;;;;;16.73;7.55;;;;;;;;;;5094640;28;20036;-63
2021/08/16 01:12:39;;;;;;;15.82;7.57;;;;;;;;;;5093405;28;20039;-63
2021/08/16 01:15:07;;;;;;;17.42;8.30;;;;;;;;;;5094586;28;20032;-63
2021/08/16 01:17:33;;;;;;;19.05;8.38;;;;;;;;;;5093551;28;20059;-64
2021/08/16 01:19:59;;;;;;;17.13;7.68;;;;;;;;;;5093686;28;20085;-63
2021/08/16 01:22:26;;;;;;;16.50;7.97;;;;;;;;;;5094479;28;20510;-63
2021/08/16 01:24:51;;;;;;;17.05;8.02;;;;;;;;;;5094429;28;20510;-63
2021/08/16 01:27:17;;;;;;;18.55;8.95;;;;;;;;;;5092736;28;20115;-63
2021/08/16 01:29:43;;;;;;;18.50;8.35;;;;;;;;;;5094232;28;20621;-63
2021/08/16 01:32:10;;;;;;;20.30;8.38;;;;;;;;;;5094001;28;20028;-63
2021/08/16 01:34:36;;;;;;;19.58;9.77;;;;;;;;;;5094167;28;20399;-63
2021/08/16 01:37:02;;;;;;;23.80;9.48;;;;;;;;;;5093568;28;20024;-63
2021/08/16 01:39:29;;;;;;;18.48;8.63;;;;;;;;;;5094122;28;20099;-63
2021/08/16 01:41:55;;;;;;;18.98;9.80;;;;;;;;;;5093870;28;20027;-63
2021/08/16 01:44:22;;;;;;;19.35;9.02;;;;;;;;;;5094083;28;20028;-63
2021/08/16 01:46:48;;;;;;;19.00;8.88;;;;;;;;;;5093354;28;20069;-63
2021/08/16 01:49:15;;;;;;;17.75;8.57;;;;;;;;;;5093879;28;20051;-63
2021/08/16 01:51:41;;;;;;;18.77;8.80;;;;;;;;;;5094159;28;20477;-62
2021/08/16 01:54:08;;;;;;;17.63;8.95;;;;;;;;;;5092230;28;20020;-63
2021/08/16 01:56:34;;;;;;;18.50;9.40;;;;;;;;;;5093151;28;20032;-63
2021/08/16 01:59:00;;;;;;;19.75;9.27;;;;;;;;;;5093638;28;20024;-63
2021/08/16 02:01:26;;;;;;;20.65;9.15;;;;;;;;;;5093623;28;20076;-63
2021/08/16 02:03:52;;;;;;;18.65;9.07;;;;;;;;;;5093575;28;20027;-64
2021/08/16 02:06:19;;;;;;;16.98;8.80;;;;;;;;;;5091477;28;20020;-63
2021/08/16 02:08:45;;;;;;;17.50;8.70;;;;;;;;;;5093572;28;20032;-63
2021/08/16 02:11:11;;;;;;;18.48;8.95;;;;;;;;;;5093369;28;20039;-63
2021/08/16 02:13:37;;;;;;;18.63;8.52;;;;;;;;;;5092335;28;20027;-64
2021/08/16 02:16:04;;;;;;;22.15;8.85;;;;;;;;;;5092523;28;20032;-63
2021/08/16 02:18:30;;;;;;;18.33;8.98;;;;;;;;;;5091879;28;20063;-63
2021/08/16 02:20:56;;;;;;;19.08;8.75;;;;;;;;;;5093245;28;20549;-63
2021/08/16 02:23:22;;;;;;;17.88;8.65;;;;;;;;;;5093145;28;20036;-63
2021/08/16 02:25:48;;;;;;;20.88;9.07;;;;;;;;;;5092458;28;20480;-63
2021/08/16 02:28:17;;;;;;;20.08;9.75;;;;;;;;;;5091891;28;20020;-63
2021/08/16 02:30:44;;;;;;;20.65;10.82;;;;;;;;;;5091646;28;20377;-63
2021/08/16 02:33:10;;;;;;;24.58;10.05;;;;;;;;;;5093125;28;20028;-62
2021/08/16 02:35:36;;;;;;;22.08;11.27;;;;;;;;;;5092745;28;20055;-62
2021/08/16 02:38:02;;;;;;;21.95;9.48;;;;;;;;;;5091772;28;20058;-62
2021/08/16 02:40:28;;;;;;;21.73;9.50;;;;;;;;;;5092442;28;20425;-64
2021/08/16 02:42:53;;;;;;;23.48;10.27;;;;;;;;;;5091406;28;20024;-63
2021/08/16 02:45:20;;;;;;;21.70;10.43;;;;;;;;;;5090165;28;20024;-64
2021/08/16 02:47:45;;;;;;;26.83;9.90;;;;;;;;;;5092039;28;20024;-63
2021/08/16 02:50:12;;;;;;;19.65;9.63;;;;;;;;;;5090779;28;20031;-63
2021/08/16 02:52:38;;;;;;;25.88;9.75;;;;;;;;;;5092657;28;20024;-63
2021/08/16 02:55:05;;;;;;;26.27;9.55;;;;;;;;;;5092607;28;20480;-63
2021/08/16 02:57:31;;;;;;;20.63;9.85;;;;;;;;;;5092082;28;20103;-63
2021/08/16 02:59:57;;;;;;;21.33;10.20;;;;;;;;;;5092398;28;20020;-63
2021/08/16 03:02:23;;;;;;;18.17;9.15;;;;;;;;;;5092374;28;20020;-63
2021/08/16 03:04:49;;;;;;;21.02;9.75;;;;;;;;;;5091117;28;20026;-63
2021/08/16 03:07:15;;;;;;;17.40;9.02;;;;;;;;;;5091820;28;20108;-63
2021/08/16 03:09:41;;;;;;;21.33;9.40;;;;;;;;;;5092392;28;20077;-63
2021/08/16 03:12:08;;;;;;;22.83;8.60;;;;;;;;;;5092182;28;20031;-63
2021/08/16 03:14:34;;;;;;;21.80;9.68;;;;;;;;;;5092250;28;20553;-63
2021/08/16 03:17:00;;;;;;;19.35;8.88;;;;;;;;;;5091482;28;20052;-64
2021/08/16 03:19:26;;;;;;;18.85;8.80;;;;;;;;;;5091808;28;20032;-63
2021/08/16 03:21:52;;;;;;;20.50;9.70;;;;;;;;;;5092302;28;20024;-63
2021/08/16 03:24:18;;;;;;;18.67;9.02;;;;;;;;;;5092218;28;20028;-63
2021/08/16 03:26:44;;;;;;;18.63;8.75;;;;;;;;;;5091581;28;20064;-64
2021/08/16 03:29:10;;;;;;;19.55;7.97;;;;;;;;;;5091969;28;20095;-63
2021/08/16 03:31:37;;;;;;;23.10;9.63;;;;;;;;;;5092241;28;20539;-63
2021/08/16 03:34:03;;;;;;;23.13;8.73;;;;;;;;;;5091827;28;20101;-63
2021/08/16 03:36:29;;;;;;;21.75;8.73;;;;;;;;;;5090996;28;20383;-63
2021/08/16 03:38:55;;;;;;;19.00;8.32;;;;;;;;;;5091533;28;20032;-63
2021/08/16 03:41:21;;;;;;;20.52;7.97;;;;;;;;;;5093050;28;20030;-62
2021/08/16 03:43:47;;;;;;;22.60;8.52;;;;;;;;;;5098787;28;20020;-62
2021/08/16 03:46:13;;;;;;;20.20;8.57;;;;;;;;;;5098153;28;20020;-63
2021/08/16 03:48:39;;;;;;;19.60;8.70;;;;;;;;;;5098373;28;20101;-63
2021/08/16 03:51:05;;;;;;;27.75;9.57;;;;;;;;;;5098243;28;20032;-63
2021/08/16 03:53:30;;;;;;;22.45;8.85;;;;;;;;;;5098605;28;20470;-63
2021/08/16 03:55:56;;;;;;;19.83;8.73;;;;;;;;;;5097786;28;20023;-63
2021/08/16 03:58:22;;;;;;;22.73;8.75;;;;;;;;;;5097204;28;20024;-63
2021/08/16 04:00:48;;;;;;;20.67;8.30;;;;;;;;;;5098331;28;20533;-63
2021/08/16 04:03:14;;;;;;;20.77;7.95;;;;;;;;;;5098233;28;20032;-63
2021/08/16 04:05:40;;;;;;;21.48;9.10;;;;;;;;;;5097779;28;20506;-63
2021/08/16 04:08:07;;;;;;;20.05;9.30;;;;;;;;;;5097119;28;20062;-63
2021/08/16 04:10:33;;;;;;;21.80;9.32;;;;;;;;;;5096908;28;20023;-63
2021/08/16 04:12:59;;;;;;;22.60;10.20;;;;;;;;;;5098304;28;20107;-63
2021/08/16 04:15:25;;;;;;;22.13;9.63;;;;;;;;;;5097381;28;20031;-63
2021/08/16 04:17:51;;;;;;;24.27;10.30;;;;;;;;;;5098276;28;20028;-63
2021/08/16 04:20:18;;;;;;;22.83;10.45;;;;;;;;;;5098043;28;20114;-63
2021/08/16 04:22:45;;;;;;;28.92;10.13;;;;;;;;;;5097168;28;20522;-63
2021/08/16 04:25:12;;;;;;;22.92;10.30;;;;;;;;;;5097767;28;20038;-62
2021/08/16 04:27:41;;;;;;;20.98;9.52;;;;;;;;;;5098191;28;20016;-62
2021/08/16 04:30:08;;;;;;;21.95;10.82;;;;;;;;;;5098175;28;20027;-64
2021/08/16 04:32:34;;;;;;;21.67;9.25;;;;;;;;;;5098197;28;20033;-63
2021/08/16 04:35:00;;;;;;;28.45;10.73;;;;;;;;;;5098390;28;20024;-63
2021/08/16 04:37:26;;;;;;;21.42;9.55;;;;;;;;;;5097692;28;20084;-62
2021/08/16 04:39:52;;;;;;;23.35;10.45;;;;;;;;;;5098167;28;20101;-62
2021/08/16 04:42:18;;;;;;;28.30;11.30;;;;;;;;;;5098301;28;20044;-62
2021/08/16 04:44:44;;;;;;;22.13;10.40;;;;;;;;;;5098129;28;20031;-62
2021/08/16 04:47:11;;;;;;;22.38;10.95;;;;;;;;;;5096968;28;20016;-62
2021/08/16 04:49:37;;;;;;;22.25;9.57;;;;;;;;;;5098114;28;20088;-63
2021/08/16 04:52:03;;;;;;;22.48;9.98;;;;;;;;;;5097995;28;20505;-62
2021/08/16 04:54:29;;;;;;;20.95;9.93;;;;;;;;;;5094203;28;20035;-62
2021/08/16 04:56:55;;;;;;;23.70;10.07;;;;;;;;;;5094332;28;20031;-62
2021/08/16 04:59:21;;;;;;;27.98;11.75;;;;;;;;;;5094085;28;20024;-62
2021/08/16 05:01:49;;;;;;;23.65;11.18;;;;;;;;;;5092840;28;20383;-62
2021/08/16 05:04:15;;;;;;;24.90;11.07;;;;;;;;;;5095282;28;20012;-62
2021/08/16 05:06:42;;;;;;;25.77;10.50;;;;;;;;;;5095860;28;20792;-62
2021/08/16 05:09:08;;;;;;;19.50;9.80;;;;;;;;;;5103452;28;20434;-63
2021/08/16 05:11:34;;;;;;;22.80;10.77;;;;;;;;;;5093921;28;20050;-63
2021/08/16 05:14:00;;;;;;;21.70;9.93;;;;;;;;;;5108445;28;20020;-63
2021/08/16 05:16:27;;;;;;;22.15;10.73;;;;;;;;;;5113906;28;20395;-62
2021/08/16 05:18:54;;;;;;;23.90;10.50;;;;;;;;;;5114173;28;20084;-62
2021/08/16 05:21:21;;;;;;;22.58;10.25;;;;;;;;;;5109593;28;20024;-62
2021/08/16 05:23:47;;;;;;;22.42;10.55;;;;;;;;;;5093809;28;20498;-62
2021/08/16 05:26:13;;;;;;;21.92;10.50;;;;;;;;;;5091698;28;20068;-62
2021/08/16 05:28:39;;;;;;;27.58;10.90;;;;;;;;;;5093695;28;20020;-62
2021/08/16 05:31:05;;;;;;;27.25;11.75;;;;;;;;;;5093939;28;20039;-62
2021/08/16 05:33:31;;;;;;;28.08;12.77;;;;;;;;;;5092575;28;20054;-62
2021/08/16 05:35:57;;;;;;;23.77;10.52;;;;;;;;;;5091617;28;20173;-62
2021/08/16 05:38:23;;;;;;;23.90;10.98;;;;;;;;;;5096762;28;20026;-62
2021/08/16 05:40:50;;;;;;;20.67;10.00;;;;;;;;;;5113865;28;20043;-63
2021/08/16 05:43:16;;;;;;;27.60;11.75;;;;;;;;;;5113975;28;20024;-62
2021/08/16 05:45:42;;;;;;;23.40;10.50;;;;;;;;;;5112928;28;20069;-62
2021/08/16 05:48:09;;;;;;;25.27;12.50;;;;;;;;;;5113612;28;20098;-63
2021/08/16 05:50:35;;;;;;;27.75;12.32;;;;;;;;;;5113223;28;20023;-63
2021/08/16 05:53:01;;;;;;;23.17;11.73;;;;;;;;;;5113624;28;20032;-62
2021/08/16 05:55:27;;;;;;;26.92;13.18;;;;;;;;;;5112677;28;20028;-63
2021/08/16 05:57:53;;;;;;;28.25;12.55;;;;;;;;;;5113633;28;20496;-63
2021/08/16 06:00:19;;;;;;;28.10;13.57;;;;;;;;;;5113283;28;20064;-63
2021/08/16 06:02:45;;;;;;;23.40;11.45;;;;;;;;;;5113767;28;20024;-63
2021/08/16 06:05:11;;;;;;;26.23;11.50;;;;;;;;;;5111531;28;20388;-63
2021/08/16 06:07:37;;;;;;;27.38;13.60;;;;;;;;;;5111828;28;20111;-63
2021/08/16 06:10:08;;;;;;;24.25;12.18;;;;;;;;;;5092948;28;20111;-63
2021/08/16 06:12:34;;;;;;;40.33;12.93;;;;;;;;;;5091024;28;20512;-63
2021/08/16 06:15:00;;;;;;;27.00;11.75;;;;;;;;;;5092429;28;20111;-63
2021/08/16 06:17:29;;;;;;;27.30;13.82;;;;;;;;;;5091827;28;20420;-63
2021/08/16 06:19:55;;;;;;;;;;;;;;;;;;5092532;28;20165;-63
2021/08/16 06:22:21;;;;;;;26.65;13.70;;;;;;;;;;5122642;22;19919;-62
2021/08/16 06:24:47;;;;;;;34.65;13.75;;;;;;;;;;5110914;28;20309;-62
2021/08/16 06:27:13;;;;;;;25.90;14.45;;;;;;;;;;5110581;28;20015;-62
2021/08/16 06:29:39;;;;;;;28.92;14.00;;;;;;;;;;5111194;28;20102;-62
2021/08/16 06:32:05;;;;;;;27.00;14.07;;;;;;;;;;5093304;28;20103;-63
2021/08/16 06:34:31;;;;;;;27.23;13.77;;;;;;;;;;5109978;28;20447;-63
2021/08/16 06:36:57;;;;;;;27.65;13.95;;;;;;;;;;5110607;28;20047;-63
2021/08/16 06:39:24;;;;;;;24.88;13.70;;;;;;;;;;5111319;28;20023;-63
2021/08/16 06:41:51;;;;;;;23.20;12.40;;;;;;;;;;5111346;28;20417;-63
2021/08/16 06:44:20;;;;;;;28.77;12.75;;;;;;;;;;5111136;28;20019;-63
2021/08/16 06:46:46;;;;;;;26.85;13.82;;;;;;;;;;5111003;28;20468;-63
2021/08/16 06:49:13;;;;;;;29.70;13.27;;;;;;;;;;5092925;28;20027;-63
2021/08/16 06:51:39;;;;;;;25.63;12.45;;;;;;;;;;5092777;28;20420;-63
2021/08/16 06:54:05;;;;;;;25.85;12.65;;;;;;;;;;5111170;28;20024;-64
2021/08/16 06:56:31;;;;;;;25.65;13.15;;;;;;;;;;5092124;28;20368;-63
2021/08/16 06:58:57;;;;;;;27.00;13.93;;;;;;;;;;5092894;28;20031;-63
2021/08/16 07:01:26;;;;;;;26.88;14.65;;;;;;;;;;5110987;28;20027;-62
2021/08/16 07:03:53;;;;;;;26.83;13.90;;;;;;;;;;5111702;28;20065;-64
2021/08/16 07:06:19;;;;;;;29.88;14.30;;;;;;;;;;5091944;28;20015;-63
2021/08/16 07:08:46;;;;;;;24.25;14.20;;;;;;;;;;5111509;28;20024;-60
2021/08/16 07:11:12;;;;;;;28.15;13.65;;;;;;;;;;5111003;28;20034;-63
2021/08/16 07:13:38;;;;;;;23.63;13.15;;;;;;;;;;5090087;28;20095;-59
2021/08/16 07:16:05;;;;;;;27.02;13.18;;;;;;;;;;5088882;28;20054;-61
2021/08/16 07:18:33;;;;;;;25.58;13.30;;;;;;;;;;5087713;28;20020;-60
2021/08/16 07:20:59;;;;;;;;;;;;;;;;;;5090816;28;20028;-60
2021/08/16 07:23:25;;;;;;;22.75;11.48;;;;;;;;;;5090354;28;19999;-60
2021/08/16 07:25:51;;;;;;;23.55;11.88;;;;;;;;;;5089807;28;20074;-61
2021/08/16 07:28:17;;;;;;;23.35;12.55;;;;;;;;;;5090284;28;20032;-59
2021/08/16 07:30:43;;;;;;;24.65;11.27;;;;;;;;;;5090447;28;20024;-60
2021/08/16 07:33:09;;;;;;;23.73;12.18;;;;;;;;;;5090268;28;20024;-61
2021/08/16 07:35:35;;;;;;;22.48;11.77;;;;;;;;;;5089709;28;20028;-61
2021/08/16 07:38:01;;;;;;;27.23;11.95;;;;;;;;;;5090503;28;20028;-62
2021/08/16 07:40:27;;;;;;;25.33;12.60;;;;;;;;;;5090023;28;20100;-62
2021/08/16 07:42:53;;;;;;;25.40;12.32;;;;;;;;;;5086884;28;20035;-60
2021/08/16 07:45:19;;;;;;;25.08;11.93;;;;;;;;;;5087835;28;20020;-63
2021/08/16 07:47:45;;;;;;;18.83;9.82;;;;;;;;;;5085981;28;20024;-61
2021/08/16 07:50:11;;;;;;;20.42;11.50;;;;;;;;;;5088083;28;20075;-61
2021/08/16 07:52:42;;;;;;;25.23;11.73;;;;;;;;;;5088038;28;20081;-61
2021/08/16 07:55:09;;;;;;;23.85;13.02;;;;;;;;;;5087701;28;20027;-61
2021/08/16 07:57:35;;;;;;;22.50;11.75;;;;;;;;;;5089583;28;20035;-61
2021/08/16 08:00:01;;;;;;;22.10;10.57;;;;;;;;;;5090205;28;20075;-62
2021/08/16 08:02:38;;;;;;;27.92;11.85;;;;;;;;;;5089597;28;20506;-62
2021/08/16 08:05:05;;;;;;;22.63;10.30;;;;;;;;;;5089638;28;20377;-61
2021/08/16 08:07:31;;;;;;;18.70;8.55;;;;;;;;;;5103729;28;20023;-62
2021/08/16 08:09:57;;;;;;;22.88;10.98;;;;;;;;;;5091963;28;20034;-62
2021/08/16 08:12:23;;;;;;;27.13;11.60;;;;;;;;;;5110328;28;20167;-61
2021/08/16 08:14:49;;;;;;;24.90;12.77;;;;;;;;;;5110111;28;20024;-61
2021/08/16 08:17:15;;;;;;;21.85;11.30;;;;;;;;;;5109674;28;20035;-61
2021/08/16 08:19:41;;;;;;;22.30;10.65;;;;;;;;;;5110039;28;20032;-61
2021/08/16 08:22:07;;;;;;;21.92;11.45;;;;;;;;;;5110122;28;20031;-58
2021/08/16 08:24:33;;;;;;;23.25;11.50;;;;;;;;;;5110333;28;20167;-61
2021/08/16 08:26:59;;;;;;;21.80;11.23;;;;;;;;;;5109627;28;20372;-62
2021/08/16 08:29:25;;;;;;;22.70;11.65;;;;;;;;;;5112505;28;20075;-62
2021/08/16 08:31:51;;;;;;;21.75;10.48;;;;;;;;;;5114234;28;20075;-62
2021/08/16 08:34:17;;;;;;;22.02;10.98;;;;;;;;;;5114216;28;20480;-59
2021/08/16 08:36:44;;;;;;;22.08;10.50;;;;;;;;;;5095024;28;20114;-61
2021/08/16 08:39:10;;;;;;;20.60;9.93;;;;;;;;;;5113746;28;20099;-62
2021/08/16 08:41:37;;;;;;;21.38;9.77;;;;;;;;;;5095772;28;20146;-62
2021/08/16 08:44:09;;;;;;;18.98;10.00;;;;;;;;;;5113862;28;20027;-62
2021/08/16 08:46:36;;;;;;;22.70;9.65;;;;;;;;;;5112018;28;20095;-61
2021/08/16 08:49:02;;;;;;;20.65;9.70;;;;;;;;;;5095667;28;20483;-63
2021/08/16 08:51:28;;;;;;;20.58;9.25;;;;;;;;;;5095254;28;20084;-63
2021/08/16 08:53:54;;;;;;;21.90;9.65;;;;;;;;;;5095094;28;20027;-62
2021/08/16 08:56:20;;;;;;;20.25;11.02;;;;;;;;;;5094512;28;20403;-63
2021/08/16 08:58:46;;;;;;;25.23;10.43;;;;;;;;;;5113877;28;20034;-63
2021/08/16 09:01:12;;;;;;;22.25;10.32;;;;;;;;;;5095094;28;20027;-62
2021/08/16 09:03:51;;;;;;;21.77;10.82;;;;;;;;;;5113460;28;20016;-63
2021/08/16 09:06:34;;;;;;;28.73;12.02;;;;;;;;;;5113571;28;20457;-62
2021/08/16 09:09:00;;;;;;;19.83;11.80;;;;;;;;;;5113779;28;20562;-63
2021/08/16 09:11:28;;;;;;;22.90;11.70;;;;;;;;;;5094781;28;20029;-62
2021/08/16 09:13:57;;;;;;;20.92;9.80;;;;;;;;;;5113199;28;20080;-63
2021/08/16 09:16:24;;;;;;;23.17;10.70;;;;;;;;;;5112362;28;20143;-61
2021/08/16 09:18:51;;;;;;;20.20;10.10;;;;;;;;;;5113097;28;20039;-62
2021/08/16 09:21:36;;;;;;;19.02;9.75;;;;;;;;;;5094442;28;20034;-63
2021/08/16 09:24:04;;;;;;;21.48;10.23;;;;;;;;;;5112965;28;20053;-59
2021/08/16 09:26:32;;;;;;;21.17;10.20;;;;;;;;;;5112769;28;20391;-61
2021/08/16 09:29:11;;;;;;;21.20;10.73;;;;;;;;;;5112826;28;20027;-63
2021/08/16 09:31:37;;;;;;;26.95;11.27;;;;;;;;;;5112671;28;20039;-63
2021/08/16 09:34:03;;;;;;;19.10;10.02;;;;;;;;;;5113103;28;20020;-63
2021/08/16 09:36:35;;;;;;;23.13;11.18;;;;;;;;;;5094039;28;20487;-60
2021/08/16 09:39:01;;;;;;;18.67;12.00;;;;;;;;;;5112429;28;20030;-63
2021/08/16 09:41:28;;;;;;;24.65;17.05;;;;;;;;;;5093939;28;20027;-63
2021/08/16 09:44:05;;;;;;;24.55;16.67;;;;;;;;;;5094579;28;20486;-63
2021/08/16 09:46:31;;;;;;;25.10;19.00;;;;;;;;;;5111061;28;20019;-60
2021/08/16 09:49:04;;;;;;;26.80;21.20;;;;;;;;;;5112749;28;20020;-62
2021/08/16 09:51:30;;;;;;;28.05;22.98;;;;;;;;;;5112528;28;20444;-63
2021/08/16 09:53:56;;;;;;;31.90;28.45;;;;;;;;;;5112477;28;20108;-63
2021/08/16 09:56:23;;;;;;;25.92;23.27;;;;;;;;;;5111859;28;20032;-61
2021/08/16 09:58:49;;;;;;;24.95;22.55;;;;;;;;;;5112291;28;20030;-62
2021/08/16 10:01:15;;;;;;;24.98;22.40;;;;;;;;;;5094073;28;20027;-62
2021/08/16 10:03:41;;;;;;;24.88;22.30;;;;;;;;;;5112441;28;20047;-62
2021/08/16 10:06:08;;;;;;;25.50;20.95;;;;;;;;;;5112213;28;20036;-63
2021/08/16 10:08:54;;;;;;;22.67;20.38;;;;;;;;;;5112192;28;20406;-61
2021/08/16 10:11:20;;;;;;;25.13;21.73;;;;;;;;;;5093902;28;20112;-61
2021/08/16 10:13:48;;;;;;;25.40;22.42;;;;;;;;;;5112037;28;20049;-62
2021/08/16 10:16:15;;;;;;;26.15;21.92;;;;;;;;;;5111456;28;20515;-58
2021/08/16 10:18:54;;;;;;;24.10;21.60;;;;;;;;;;5093756;28;20387;-61
2021/08/16 10:21:21;;;;;;;25.73;23.00;;;;;;;;;;5093733;28;20171;-62
2021/08/16 10:23:48;;;;;;;25.02;22.40;;;;;;;;;;5112007;28;20429;-63
2021/08/16 10:26:23;;;;;;;26.40;22.35;;;;;;;;;;5111345;28;20071;-61
2021/08/16 10:28:53;;;;;;;24.85;22.25;;;;;;;;;;5112134;28;20536;-63
2021/08/16 10:31:29;;;;;;;25.27;22.15;;;;;;;;;;5111838;28;20016;-60
2021/08/16 10:33:55;;;;;;;21.48;19.27;;;;;;;;;;5111713;28;20435;-63
2021/08/16 10:36:22;;;;;;;22.50;20.20;;;;;;;;;;5111157;28;20378;-62
2021/08/16 10:38:49;;;;;;;22.75;20.48;;;;;;;;;;5093424;28;20367;-63
2021/08/16 10:41:23;;;;;;;19.80;17.70;;;;;;;;;;5111343;28;20472;-63
2021/08/16 10:43:49;;;;;;;21.20;16.77;;;;;;;;;;5111002;28;20098;-63
2021/08/16 10:46:21;;;;;;;20.35;17.83;;;;;;;;;;5109442;28;20020;-63
2021/08/16 10:48:48;;;;;;;18.35;16.02;;;;;;;;;;5110970;28;20470;-64
2021/08/16 10:51:14;;;;;;;24.02;16.42;;;;;;;;;;5110682;28;20115;-61
2021/08/16 10:53:50;;;;;;;19.83;15.02;;;;;;;;;;5111097;28;20391;-63
2021/08/16 10:56:20;;;;;;;17.83;13.88;;;;;;;;;;5110509;28;20088;-63
2021/08/16 10:58:46;;;;;;;20.95;15.25;;;;;;;;;;5110949;28;20066;-63
2021/08/16 11:01:26;;;;;;;22.80;16.30;;;;;;;;;;5111024;28;20471;-64
2021/08/16 11:03:58;;;;;;;23.35;16.30;;;;;;;;;;5111066;28;20042;-64
2021/08/16 11:06:24;;;;;;;22.02;17.10;;;;;;;;;;5109905;28;20032;-63
2021/08/16 11:08:56;;;;;;;20.95;17.10;;;;;;;;;;5111054;28;20483;-62
2021/08/16 11:11:23;;;;;;;20.33;16.10;;;;;;;;;;5092231;28;20032;-61
2021/08/16 11:13:49;;;;;;;18.40;15.27;;;;;;;;;;5110616;28;20102;-63
2021/08/16 11:16:15;;;;;;;21.38;15.82;;;;;;;;;;5091662;28;20047;-64
2021/08/16 11:18:43;;;;;;;18.52;14.98;;;;;;;;;;5110382;28;20395;-63
2021/08/16 11:21:10;;;;;;;;;;;;;;;;;;5110644;28;20433;-62
2021/08/16 11:23:38;;;;;;;18.70;13.45;;;;;;;;;;5110323;28;19962;-64
2021/08/16 11:26:04;;;;;;;18.23;13.13;;;;;;;;;;5109728;28;20016;-64
2021/08/16 11:28:31;;;;;;;20.23;12.15;;;;;;;;;;5092307;28;20030;-64
2021/08/16 11:31:07;;;;;;;20.52;12.95;;;;;;;;;;5110288;28;20438;-63
2021/08/16 11:33:34;;;;;;;18.48;12.68;;;;;;;;;;5092270;28;20083;-64
2021/08/16 11:36:04;;;;;;;17.13;11.93;;;;;;;;;;5109217;28;20034;-62
2021/08/16 11:38:30;;;;;;;24.73;12.60;;;;;;;;;;5098607;28;20032;-63
2021/08/16 11:41:06;;;;;;;18.73;10.98;;;;;;;;;;5082011;28;20100;-61
2021/08/16 11:43:32;;;;;;;19.92;10.48;;;;;;;;;;5100259;28;20016;-62
2021/08/16 11:45:58;;;;;;;18.25;10.68;;;;;;;;;;5079367;28;20099;-62
2021/08/16 11:48:24;;;;;;;21.08;11.35;;;;;;;;;;5098668;28;20032;-63
2021/08/16 11:50:57;;;;;;;18.40;9.02;;;;;;;;;;4748710;28;10000145;-63
2021/08/16 11:53:23;;;;;;;18.15;9.77;;;;;;;;;;5105936;28;20418;-64
2021/08/16 11:55:49;;;;;;;18.77;9.60;;;;;;;;;;5100195;28;20059;-64
2021/08/16 11:58:15;;;;;;;17.58;10.45;;;;;;;;;;5081511;28;20030;-64
2021/08/16 12:00:41;;;;;;;18.00;10.00;;;;;;;;;;5081128;28;20028;-63
2021/08/16 12:03:08;;;;;;;18.98;9.48;;;;;;;;;;5088068;28;20134;-63
2021/08/16 12:05:34;;;;;;;19.88;9.90;;;;;;;;;;5103577;28;20049;-64
2021/08/16 12:08:00;;;;;;;27.25;10.00;;;;;;;;;;5093851;28;20020;-62
2021/08/16 12:10:27;;;;;;;18.25;9.52;;;;;;;;;;5089422;28;20028;-63
2021/08/16 12:12:57;;;;;;;22.10;9.73;;;;;;;;;;5107678;28;20024;-62
2021/08/16 12:15:23;;;;;;;19.05;9.27;;;;;;;;;;5105613;28;20032;-63
2021/08/16 12:17:53;;;;;;;17.73;8.68;;;;;;;;;;5103746;28;20111;-63
2021/08/16 12:20:20;;;;;;;17.13;9.50;;;;;;;;;;5102479;28;20032;-63
2021/08/16 12:22:48;;;;;;;21.15;10.23;;;;;;;;;;5085064;28;20486;-63
2021/08/16 12:25:14;;;;;;;17.77;9.23;;;;;;;;;;5101418;28;20028;-62
2021/08/16 12:27:40;;;;;;;20.23;9.95;;;;;;;;;;5092287;22;20102;-64
2021/08/16 12:30:16;;;;;;;19.98;9.43;;;;;;;;;;5056111;28;20029;-63
2021/08/16 12:32:42;;;;;;;18.08;9.98;;;;;;;;;;5066143;28;20028;-64
2021/08/16 12:35:15;;;;;;;19.30;9.45;;;;;;;;;;5063006;28;20029;-63
2021/08/16 12:37:41;;;;;;;18.38;9.15;;;;;;;;;;5064170;28;20529;-65
2021/08/16 12:40:16;;;;;;;19.75;9.43;;;;;;;;;;5062594;28;20017;-64
2021/08/16 12:42:53;;;;;;;18.35;9.88;;;;;;;;;;5062956;28;20017;-65
2021/08/16 12:45:19;;;;;;;16.13;8.70;;;;;;;;;;5061753;28;20093;-64
2021/08/16 12:47:45;;;;;;;16.55;9.25;;;;;;;;;;5063798;28;20020;-65
2021/08/16 12:50:11;;;;;;;16.40;8.00;;;;;;;;;;5074272;28;20341;-65
2021/08/16 12:52:38;;;;;;;14.38;7.22;;;;;;;;;;5075092;28;20053;-64
2021/08/16 12:55:05;;;;;;;15.77;6.97;;;;;;;;;;5072942;28;20516;-64
2021/08/16 12:57:31;;;;;;;16.60;7.80;;;;;;;;;;5072824;28;20044;-64
2021/08/16 12:59:57;;;;;;;21.10;7.47;;;;;;;;;;5055377;28;20075;-68
2021/08/16 13:02:24;;;;;;;15.15;7.50;;;;;;;;;;5054742;28;20028;-65
2021/08/16 13:04:51;;;;;;;18.90;7.97;;;;;;;;;;5074238;28;20024;-64
2021/08/16 13:07:17;;;;;;;14.55;7.30;;;;;;;;;;5060539;28;20131;-64
2021/08/16 13:09:43;;;;;;;14.73;7.05;;;;;;;;;;5067363;28;20029;-63
2021/08/16 13:12:09;;;;;;;17.48;7.78;;;;;;;;;;5074886;28;20039;-64
2021/08/16 13:14:35;;;;;;;16.83;7.68;;;;;;;;;;5072881;28;20029;-64
2021/08/16 13:17:01;;;;;;;21.90;9.07;;;;;;;;;;5074080;28;20031;-64
2021/08/16 13:19:27;;;;;;;19.70;8.25;;;;;;;;;;5074320;28;20028;-64
2021/08/16 13:21:53;;;;;;;20.73;7.53;;;;;;;;;;5074746;28;20423;-63
2021/08/16 13:24:19;;;;;;;17.33;7.90;;;;;;;;;;5073382;28;20020;-63
2021/08/16 13:26:45;;;;;;;19.90;7.93;;;;;;;;;;5073673;28;20036;-64
2021/08/16 13:29:11;;;;;;;17.80;7.65;;;;;;;;;;5072299;28;20480;-63
2021/08/16 13:31:37;;;;;;;18.42;9.02;;;;;;;;;;5073535;28;20032;-64
2021/08/16 13:34:05;;;;;;;19.80;8.90;;;;;;;;;;5060656;28;20032;-64
2021/08/16 13:36:31;;;;;;;17.23;8.20;;;;;;;;;;5052785;28;20027;-64
2021/08/16 13:38:57;;;;;;;19.67;9.68;;;;;;;;;;5053172;28;20508;-63
2021/08/16 13:41:23;;;;;;;16.70;9.13;;;;;;;;;;5053253;28;20033;-64
2021/08/16 13:43:49;;;;;;;17.48;9.13;;;;;;;;;;5053407;28;20033;-63
2021/08/16 13:46:15;;;;;;;19.23;9.85;;;;;;;;;;5051370;28;20025;-63
2021/08/16 13:48:42;;;;;;;21.17;9.68;;;;;;;;;;5052164;28;20104;-64
2021/08/16 13:51:10;;;;;;;22.35;9.55;;;;;;;;;;5053524;28;20025;-65
2021/08/16 13:53:36;;;;;;;18.17;10.35;;;;;;;;;;5053490;28;20029;-64
2021/08/16 13:56:02;;;;;;;18.50;8.88;;;;;;;;;;5052557;28;20028;-65
2021/08/16 13:58:28;;;;;;;21.05;9.27;;;;;;;;;;5060460;28;20028;-65
2021/08/16 14:00:55;;;;;;;19.55;9.73;;;;;;;;;;5071656;28;20070;-64
2021/08/16 14:03:21;;;;;;;18.95;9.40;;;;;;;;;;5071460;28;20365;-64
2021/08/16 14:05:47;;;;;;;21.73;8.80;;;;;;;;;;5072233;28;20024;-65
2021/08/16 14:08:13;;;;;;;19.15;8.80;;;;;;;;;;5072766;28;20387;-65
2021/08/16 14:10:39;;;;;;;20.40;8.88;;;;;;;;;;5072410;28;20032;-65
2021/08/16 14:13:06;;;;;;;21.25;8.25;;;;;;;;;;5071792;28;20108;-65
2021/08/16 14:15:32;;;;;;;23.33;9.60;;;;;;;;;;5065000;28;20060;-63
2021/08/16 14:17:58;;;;;;;18.05;8.50;;;;;;;;;;5061863;28;20377;-64
2021/08/16 14:20:24;;;;;;;19.38;8.60;;;;;;;;;;5072644;28;20031;-64
2021/08/16 14:22:50;;;;;;;22.92;9.00;;;;;;;;;;5071473;28;20025;-66